sensor_id;sensor_type;location;lat;lon;timestamp;pressure;altitude;pressure_sealevel;temperature;humidity
28181;BME280;15464;50.988;10.318;2022-12-07T00:01:17;98894.25;;;1.28;100.00
28181;BME280;15464;50.988;10.318;2022-12-07T00:03:45;98892.41;;;1.30;100.00
28181;BME280;15464;50.988;10.318;2022-12-07T00:06:14;98890.84;;;1.26;100.00
28181;BME280;15464;50.988;10.318;2022-12-07T00:08:41;98895.38;;;1.23;100.00
28181;BME280;15464;50.988;10.318;2022-12-07T00:11:13;98895.31;;;1.24;100.00
28181;BME280;15464;50.988;10.318;2022-12-07T00:13:40;98881.25;;;1.27;100.00
28181;BME280;15464;50.988;10.318;2022-12-07T00:16:16;98876.56;;;1.16;100.00
28181;BME280;15464;50.988;10.318;2022-12-07T00:18:43;98876.38;;;1.19;100.00
28181;BME280;15464;50.988;10.318;2022-12-07T00:21:17;98873.78;;;1.19;100.00
28181;BME280;15464;50.988;10.318;2022-12-07T00:23:46;98866.72;;;1.21;100.00
28181;BME280;15464;50.988;10.318;2022-12-07T00:26:20;98865.72;;;1.24;100.00
28181;BME280;15464;50.988;10.318;2022-12-07T00:28:49;98867.50;;;1.23;100.00
28181;BME280;15464;50.988;10.318;2022-12-07T00:31:17;98864.03;;;1.23;100.00
28181;BME280;15464;50.988;10.318;2022-12-07T00:33:45;98861.34;;;1.24;100.00
28181;BME280;15464;50.988;10.318;2022-12-07T00:36:15;98855.34;;;1.22;100.00
28181;BME280;15464;50.988;10.318;2022-12-07T00:38:46;98842.28;;;1.22;100.00
28181;BME280;15464;50.988;10.318;2022-12-07T00:41:15;98839.81;;;1.19;100.00
28181;BME280;15464;50.988;10.318;2022-12-07T00:43:43;98844.13;;;1.20;100.00
28181;BME280;15464;50.988;10.318;2022-12-07T00:46:11;98838.06;;;1.19;100.00
28181;BME280;15464;50.988;10.318;2022-12-07T00:48:38;98840.59;;;1.21;100.00
28181;BME280;15464;50.988;10.318;2022-12-07T00:51:06;98831.00;;;1.21;100.00
28181;BME280;15464;50.988;10.318;2022-12-07T00:53:37;98837.19;;;1.19;100.00
28181;BME280;15464;50.988;10.318;2022-12-07T00:56:08;98828.44;;;1.20;100.00
28181;BME280;15464;50.988;10.318;2022-12-07T00:58:35;98823.41;;;1.17;100.00
28181;BME280;15464;50.988;10.318;2022-12-07T01:01:03;98820.63;;;1.20;100.00
28181;BME280;15464;50.988;10.318;2022-12-07T01:03:31;98820.63;;;1.20;100.00
28181;BME280;15464;50.988;10.318;2022-12-07T01:05:58;98826.75;;;1.19;100.00
28181;BME280;15464;50.988;10.318;2022-12-07T01:08:26;98819.09;;;1.16;100.00
28181;BME280;15464;50.988;10.318;2022-12-07T01:11:02;98820.84;;;1.15;100.00
28181;BME280;15464;50.988;10.318;2022-12-07T01:13:29;98816.59;;;1.13;100.00
28181;BME280;15464;50.988;10.318;2022-12-07T01:16:00;98806.03;;;1.16;100.00
28181;BME280;15464;50.988;10.318;2022-12-07T01:18:28;98803.25;;;1.19;100.00
28181;BME280;15464;50.988;10.318;2022-12-07T01:23:25;98799.72;;;1.20;100.00
28181;BME280;15464;50.988;10.318;2022-12-07T01:25:56;98803.88;;;1.24;100.00
28181;BME280;15464;50.988;10.318;2022-12-07T01:28:23;98802.19;;;1.23;100.00
28181;BME280;15464;50.988;10.318;2022-12-07T01:31:04;98790.59;;;1.29;100.00
28181;BME280;15464;50.988;10.318;2022-12-07T01:33:35;98791.56;;;1.26;100.00
28181;BME280;15464;50.988;10.318;2022-12-07T01:36:05;98798.66;;;1.24;100.00
28181;BME280;15464;50.988;10.318;2022-12-07T01:38:32;98790.91;;;1.23;100.00
28181;BME280;15464;50.988;10.318;2022-12-07T01:41:00;98801.34;;;1.23;100.00
28181;BME280;15464;50.988;10.318;2022-12-07T01:43:28;98796.25;;;1.19;100.00
28181;BME280;15464;50.988;10.318;2022-12-07T01:45:56;98798.97;;;1.18;100.00
28181;BME280;15464;50.988;10.318;2022-12-07T01:48:29;98806.16;;;1.13;100.00
28181;BME280;15464;50.988;10.318;2022-12-07T01:51:01;98803.19;;;1.20;100.00
28181;BME280;15464;50.988;10.318;2022-12-07T01:53:30;98798.81;;;1.21;100.00
28181;BME280;15464;50.988;10.318;2022-12-07T01:55:58;98800.63;;;1.19;100.00
28181;BME280;15464;50.988;10.318;2022-12-07T01:58:25;98796.13;;;1.23;100.00
28181;BME280;15464;50.988;10.318;2022-12-07T02:00:52;98794.13;;;1.28;100.00
28181;BME280;15464;50.988;10.318;2022-12-07T02:03:27;98789.88;;;1.25;100.00
28181;BME280;15464;50.988;10.318;2022-12-07T02:05:56;98798.50;;;1.27;100.00
28181;BME280;15464;50.988;10.318;2022-12-07T02:08:25;98788.97;;;1.26;100.00
28181;BME280;15464;50.988;10.318;2022-12-07T02:10:52;98786.50;;;1.23;100.00
28181;BME280;15464;50.988;10.318;2022-12-07T02:13:22;98786.50;;;1.23;100.00
28181;BME280;15464;50.988;10.318;2022-12-07T02:16:17;98779.59;;;1.22;100.00
28181;BME280;15464;50.988;10.318;2022-12-07T02:21:52;98760.31;;;1.25;100.00
28181;BME280;15464;50.988;10.318;2022-12-07T02:25:17;98767.16;;;1.27;100.00
28181;BME280;15464;50.988;10.318;2022-12-07T02:30:47;98774.59;;;1.35;100.00
28181;BME280;15464;50.988;10.318;2022-12-07T02:33:19;98773.75;;;1.34;100.00
28181;BME280;15464;50.988;10.318;2022-12-07T02:35:51;98776.28;;;1.36;100.00
28181;BME280;15464;50.988;10.318;2022-12-07T02:41:22;98780.50;;;1.38;100.00
28181;BME280;15464;50.988;10.318;2022-12-07T02:43:54;98780.66;;;1.35;100.00
28181;BME280;15464;50.988;10.318;2022-12-07T02:46:27;98761.47;;;1.36;100.00
28181;BME280;15464;50.988;10.318;2022-12-07T02:48:55;98757.94;;;1.37;100.00
28181;BME280;15464;50.988;10.318;2022-12-07T02:51:22;98749.47;;;1.32;100.00
28181;BME280;15464;50.988;10.318;2022-12-07T02:53:49;98746.72;;;1.35;100.00
28181;BME280;15464;50.988;10.318;2022-12-07T03:10:09;98732.47;;;1.41;100.00
28181;BME280;15464;50.988;10.318;2022-12-07T03:12:44;98740.31;;;1.41;100.00
28181;BME280;15464;50.988;10.318;2022-12-07T03:15:22;98739.41;;;1.42;100.00
28181;BME280;15464;50.988;10.318;2022-12-07T03:17:54;98730.63;;;1.43;100.00
28181;BME280;15464;50.988;10.318;2022-12-07T03:20:23;98728.63;;;1.48;100.00
28181;BME280;15464;50.988;10.318;2022-12-07T03:22:52;98729.47;;;1.48;100.00
28181;BME280;15464;50.988;10.318;2022-12-07T03:25:21;98734.69;;;1.48;100.00
28181;BME280;15464;50.988;10.318;2022-12-07T03:27:58;98729.63;;;1.45;100.00
28181;BME280;15464;50.988;10.318;2022-12-07T03:30:45;98729.63;;;1.45;100.00
28181;BME280;15464;50.988;10.318;2022-12-07T03:33:21;98726.09;;;1.46;100.00
28181;BME280;15464;50.988;10.318;2022-12-07T03:36:06;98719.94;;;1.47;100.00
28181;BME280;15464;50.988;10.318;2022-12-07T03:38:40;98724.19;;;1.50;100.00
28181;BME280;15464;50.988;10.318;2022-12-07T03:41:13;98720.53;;;1.52;100.00
28181;BME280;15464;50.988;10.318;2022-12-07T03:43:41;98721.25;;;1.56;100.00
28181;BME280;15464;50.988;10.318;2022-12-07T03:46:25;98724.66;;;1.56;100.00
28181;BME280;15464;50.988;10.318;2022-12-07T03:49:02;98723.94;;;1.54;100.00
28181;BME280;15464;50.988;10.318;2022-12-07T03:51:46;98721.13;;;1.57;100.00
28181;BME280;15464;50.988;10.318;2022-12-07T03:54:43;98718.38;;;1.60;100.00
28181;BME280;15464;50.988;10.318;2022-12-07T03:57:12;98725.28;;;1.61;100.00
28181;BME280;15464;50.988;10.318;2022-12-07T03:59:40;98731.25;;;1.63;100.00
28181;BME280;15464;50.988;10.318;2022-12-07T04:02:11;98725.28;;;1.61;100.00
28181;BME280;15464;50.988;10.318;2022-12-07T04:04:39;98730.34;;;1.65;100.00
28181;BME280;15464;50.988;10.318;2022-12-07T04:07:06;98727.47;;;1.69;100.00
28181;BME280;15464;50.988;10.318;2022-12-07T04:09:33;98727.59;;;1.68;100.00
28181;BME280;15464;50.988;10.318;2022-12-07T04:11:59;98724.19;;;1.66;100.00
28181;BME280;15464;50.988;10.318;2022-12-07T04:14:26;98717.88;;;1.70;100.00
28181;BME280;15464;50.988;10.318;2022-12-07T04:16:55;98721.34;;;1.70;100.00
28181;BME280;15464;50.988;10.318;2022-12-07T04:19:30;98714.41;;;1.69;100.00
28181;BME280;15464;50.988;10.318;2022-12-07T04:21:58;98714.50;;;1.68;100.00
28181;BME280;15464;50.988;10.318;2022-12-07T04:24:26;98714.50;;;1.68;100.00
28181;BME280;15464;50.988;10.318;2022-12-07T04:26:53;98714.19;;;1.74;100.00
28181;BME280;15464;50.988;10.318;2022-12-07T04:29:20;98708.19;;;1.72;100.00
28181;BME280;15464;50.988;10.318;2022-12-07T04:31:47;98711.41;;;1.77;100.00
28181;BME280;15464;50.988;10.318;2022-12-07T04:34:15;98707.78;;;1.79;100.00
28181;BME280;15464;50.988;10.318;2022-12-07T04:36:42;98708.63;;;1.80;100.00
28181;BME280;15464;50.988;10.318;2022-12-07T04:39:21;98709.47;;;1.80;100.00
28181;BME280;15464;50.988;10.318;2022-12-07T04:41:49;98703.41;;;1.80;100.00
28181;BME280;15464;50.988;10.318;2022-12-07T04:44:17;98712.16;;;1.79;100.00
28181;BME280;15464;50.988;10.318;2022-12-07T04:46:44;98710.31;;;1.81;100.00
28181;BME280;15464;50.988;10.318;2022-12-07T04:49:12;98703.56;;;1.77;100.00
28181;BME280;15464;50.988;10.318;2022-12-07T04:51:39;98701.63;;;1.80;100.00
28181;BME280;15464;50.988;10.318;2022-12-07T04:54:06;98699.75;;;1.82;100.00
28181;BME280;15464;50.988;10.318;2022-12-07T04:56:34;98699.69;;;1.84;100.00
28181;BME280;15464;50.988;10.318;2022-12-07T04:59:02;98704.25;;;1.80;100.00
28181;BME280;15464;50.988;10.318;2022-12-07T05:01:29;98700.69;;;1.81;100.00
28181;BME280;15464;50.988;10.318;2022-12-07T05:03:56;98710.47;;;1.78;100.00
28181;BME280;15464;50.988;10.318;2022-12-07T05:06:23;98710.47;;;1.78;100.00
28181;BME280;15464;50.988;10.318;2022-12-07T05:08:49;98710.31;;;1.81;100.00
28181;BME280;15464;50.988;10.318;2022-12-07T05:11:16;98705.75;;;1.84;100.00
28181;BME280;15464;50.988;10.318;2022-12-07T05:14:03;98712.69;;;1.85;100.00
28181;BME280;15464;50.988;10.318;2022-12-07T05:16:30;98716.06;;;1.87;100.00
28181;BME280;15464;50.988;10.318;2022-12-07T05:18:57;98715.03;;;1.90;100.00
28181;BME280;15464;50.988;10.318;2022-12-07T05:21:24;98712.50;;;1.88;100.00
28181;BME280;15464;50.988;10.318;2022-12-07T05:23:51;98710.84;;;1.87;100.00
28181;BME280;15464;50.988;10.318;2022-12-07T05:26:18;98708.88;;;1.91;100.00
28181;BME280;15464;50.988;10.318;2022-12-07T05:28:45;98718.44;;;1.92;100.00
28181;BME280;15464;50.988;10.318;2022-12-07T05:31:11;98712.28;;;1.93;100.00
28181;BME280;15464;50.988;10.318;2022-12-07T05:33:38;98710.41;;;1.95;100.00
28181;BME280;15464;50.988;10.318;2022-12-07T05:36:05;98709.47;;;1.96;100.00
28181;BME280;15464;50.988;10.318;2022-12-07T05:38:33;98708.03;;;1.90;100.00
28181;BME280;15464;50.988;10.318;2022-12-07T05:41:05;98709.66;;;1.93;100.00
28181;BME280;15464;50.988;10.318;2022-12-07T05:43:32;98714.88;;;1.93;100.00
28181;BME280;15464;50.988;10.318;2022-12-07T05:45:59;98711.31;;;1.94;100.00
28181;BME280;15464;50.988;10.318;2022-12-07T05:48:26;98717.41;;;1.94;100.00
28181;BME280;15464;50.988;10.318;2022-12-07T05:50:53;98713.72;;;1.98;100.00
28181;BME280;15464;50.988;10.318;2022-12-07T05:53:19;98711.19;;;1.97;100.00
28181;BME280;15464;50.988;10.318;2022-12-07T05:55:48;98712.88;;;1.98;100.00
28181;BME280;15464;50.988;10.318;2022-12-07T05:58:15;98709.31;;;1.99;100.00
28181;BME280;15464;50.988;10.318;2022-12-07T06:01:00;98715.16;;;2.04;100.00
28181;BME280;15464;50.988;10.318;2022-12-07T06:03:27;98707.97;;;2.08;100.00
28181;BME280;15464;50.988;10.318;2022-12-07T06:05:54;98710.50;;;2.09;100.00
28181;BME280;15464;50.988;10.318;2022-12-07T06:08:20;98706.19;;;2.08;100.00
28181;BME280;15464;50.988;10.318;2022-12-07T06:10:47;98706.78;;;2.13;100.00
28181;BME280;15464;50.988;10.318;2022-12-07T06:13:34;98713.88;;;2.11;100.00
28181;BME280;15464;50.988;10.318;2022-12-07T06:16:00;98714.88;;;2.09;100.00
28181;BME280;15464;50.988;10.318;2022-12-07T06:18:27;98710.34;;;2.12;100.00
28181;BME280;15464;50.988;10.318;2022-12-07T06:20:54;98700.03;;;2.09;100.00
28181;BME280;15464;50.988;10.318;2022-12-07T06:23:20;98701.41;;;2.16;100.00
28181;BME280;15464;50.988;10.318;2022-12-07T06:25:47;98698.84;;;2.15;100.00
28181;BME280;15464;50.988;10.318;2022-12-07T06:28:14;98705.13;;;2.12;100.00
28181;BME280;15464;50.988;10.318;2022-12-07T06:30:40;98706.03;;;2.11;100.00
28181;BME280;15464;50.988;10.318;2022-12-07T06:33:07;98704.34;;;2.10;100.00
28181;BME280;15464;50.988;10.318;2022-12-07T06:35:34;98710.50;;;2.09;100.00
28181;BME280;15464;50.988;10.318;2022-12-07T06:38:00;98709.50;;;2.12;100.00
28181;BME280;15464;50.988;10.318;2022-12-07T06:40:27;98717.84;;;2.18;100.00
28181;BME280;15464;50.988;10.318;2022-12-07T06:42:53;98717.09;;;2.16;100.00
28181;BME280;15464;50.988;10.318;2022-12-07T06:45:20;98728.41;;;2.17;100.00
28181;BME280;15464;50.988;10.318;2022-12-07T06:47:47;98721.41;;;2.17;100.00
28181;BME280;15464;50.988;10.318;2022-12-07T06:50:14;98724.84;;;2.18;100.00
28181;BME280;15464;50.988;10.318;2022-12-07T06:52:40;98724.00;;;2.17;100.00
28181;BME280;15464;50.988;10.318;2022-12-07T06:55:07;98725.72;;;2.18;100.00
28181;BME280;15464;50.988;10.318;2022-12-07T06:57:33;98729.06;;;2.20;100.00
28181;BME280;15464;50.988;10.318;2022-12-07T07:00:00;98729.41;;;2.14;100.00
28181;BME280;15464;50.988;10.318;2022-12-07T07:02:27;98729.97;;;2.19;100.00
28181;BME280;15464;50.988;10.318;2022-12-07T07:04:54;98721.28;;;2.19;100.00
28181;BME280;15464;50.988;10.318;2022-12-07T07:07:21;98727.72;;;2.13;100.00
28181;BME280;15464;50.988;10.318;2022-12-07T07:09:47;98725.78;;;2.17;100.00
28181;BME280;15464;50.988;10.318;2022-12-07T07:12:14;98738.03;;;2.16;100.00
28181;BME280;15464;50.988;10.318;2022-12-07T07:14:41;98735.47;;;2.15;100.00
28181;BME280;15464;50.988;10.318;2022-12-07T07:17:08;98737.25;;;2.14;100.00
28181;BME280;15464;50.988;10.318;2022-12-07T07:19:35;98731.09;;;2.15;100.00
28181;BME280;15464;50.988;10.318;2022-12-07T07:22:03;98733.03;;;2.12;100.00
28181;BME280;15464;50.988;10.318;2022-12-07T07:24:30;98737.09;;;2.17;100.00
28181;BME280;15464;50.988;10.318;2022-12-07T07:26:57;98733.63;;;2.17;100.00
28181;BME280;15464;50.988;10.318;2022-12-07T07:29:23;98730.16;;;2.16;100.00
28181;BME280;15464;50.988;10.318;2022-12-07T07:31:50;98734.56;;;2.16;100.00
28181;BME280;15464;50.988;10.318;2022-12-07T07:34:17;98725.84;;;2.15;100.00
28181;BME280;15464;50.988;10.318;2022-12-07T07:36:43;98736.31;;;2.15;100.00
28181;BME280;15464;50.988;10.318;2022-12-07T07:39:10;98728.97;;;2.22;100.00
28181;BME280;15464;50.988;10.318;2022-12-07T07:41:39;98728.06;;;2.23;100.00
28181;BME280;15464;50.988;10.318;2022-12-07T07:44:05;98731.59;;;2.22;100.00
28181;BME280;15464;50.988;10.318;2022-12-07T07:46:32;98737.84;;;2.19;100.00
28181;BME280;15464;50.988;10.318;2022-12-07T07:48:59;98738.53;;;2.23;100.00
28181;BME280;15464;50.988;10.318;2022-12-07T07:51:26;98738.69;;;2.20;100.00
28181;BME280;15464;50.988;10.318;2022-12-07T07:53:52;98738.69;;;2.20;100.00
28181;BME280;15464;50.988;10.318;2022-12-07T07:56:19;98744.94;;;2.17;100.00
28181;BME280;15464;50.988;10.318;2022-12-07T07:58:46;98734.72;;;2.13;100.00
28181;BME280;15464;50.988;10.318;2022-12-07T08:01:12;98739.88;;;2.14;100.00
28181;BME280;15464;50.988;10.318;2022-12-07T08:03:40;98732.94;;;2.13;100.00
28181;BME280;15464;50.988;10.318;2022-12-07T08:06:06;98730.25;;;2.15;100.00
28181;BME280;15464;50.988;10.318;2022-12-07T08:08:33;98730.44;;;2.12;100.00
28181;BME280;15464;50.988;10.318;2022-12-07T08:11:00;98734.81;;;2.11;100.00
28181;BME280;15464;50.988;10.318;2022-12-07T08:13:27;98727.13;;;2.08;100.00
28181;BME280;15464;50.988;10.318;2022-12-07T08:15:58;98733.13;;;2.10;100.00
28181;BME280;15464;50.988;10.318;2022-12-07T08:18:24;98745.09;;;2.14;100.00
28181;BME280;15464;50.988;10.318;2022-12-07T08:20:51;98739.78;;;2.16;100.00
28181;BME280;15464;50.988;10.318;2022-12-07T08:23:18;98742.91;;;2.22;100.00
28181;BME280;15464;50.988;10.318;2022-12-07T08:25:44;98744.59;;;2.23;100.00
28181;BME280;15464;50.988;10.318;2022-12-07T08:28:11;98744.28;;;2.29;100.00
28181;BME280;15464;50.988;10.318;2022-12-07T08:30:38;98738.84;;;2.32;100.00
28181;BME280;15464;50.988;10.318;2022-12-07T08:33:04;98746.38;;;2.38;100.00
28181;BME280;15464;50.988;10.318;2022-12-07T08:35:33;98742.66;;;2.42;100.00
28181;BME280;15464;50.988;10.318;2022-12-07T08:38:00;98746.22;;;2.41;100.00
28181;BME280;15464;50.988;10.318;2022-12-07T08:40:29;98746.22;;;2.41;100.00
28181;BME280;15464;50.988;10.318;2022-12-07T08:42:55;98743.16;;;2.49;100.00
28181;BME280;15464;50.988;10.318;2022-12-07T08:45:22;98741.78;;;2.58;100.00
28181;BME280;15464;50.988;10.318;2022-12-07T08:48:11;98748.91;;;2.56;100.00
28181;BME280;15464;50.988;10.318;2022-12-07T08:50:39;98752.94;;;2.61;100.00
28181;BME280;15464;50.988;10.318;2022-12-07T08:53:14;98740.53;;;2.65;100.00
28181;BME280;15464;50.988;10.318;2022-12-07T08:55:41;98736.72;;;2.70;100.00
28181;BME280;15464;50.988;10.318;2022-12-07T08:58:08;98741.09;;;2.70;100.00
28181;BME280;15464;50.988;10.318;2022-12-07T09:00:34;98744.47;;;2.72;100.00
28181;BME280;15464;50.988;10.318;2022-12-07T09:03:01;98742.22;;;2.66;100.00
28181;BME280;15464;50.988;10.318;2022-12-07T09:05:28;98744.41;;;2.73;100.00
28181;BME280;15464;50.988;10.318;2022-12-07T09:07:57;98755.44;;;2.78;100.00
28181;BME280;15464;50.988;10.318;2022-12-07T09:10:26;98747.59;;;2.78;100.00
28181;BME280;15464;50.988;10.318;2022-12-07T09:12:53;98750.13;;;2.80;100.00
28181;BME280;15464;50.988;10.318;2022-12-07T09:15:20;98747.69;;;2.77;100.00
28181;BME280;15464;50.988;10.318;2022-12-07T09:17:46;98751.63;;;2.84;100.00
28181;BME280;15464;50.988;10.318;2022-12-07T09:20:13;98747.66;;;2.93;100.00
28181;BME280;15464;50.988;10.318;2022-12-07T09:22:40;98771.03;;;2.96;100.00
28181;BME280;15464;50.988;10.318;2022-12-07T09:25:07;98763.88;;;2.99;100.00
28181;BME280;15464;50.988;10.318;2022-12-07T09:27:33;98762.25;;;2.97;100.00
28181;BME280;15464;50.988;10.318;2022-12-07T09:30:00;98766.28;;;3.02;100.00
28181;BME280;15464;50.988;10.318;2022-12-07T09:32:27;98759.78;;;3.09;100.00
28181;BME280;15464;50.988;10.318;2022-12-07T09:34:54;98753.88;;;3.06;100.00
28181;BME280;15464;50.988;10.318;2022-12-07T09:37:21;98751.06;;;3.09;100.00
28181;BME280;15464;50.988;10.318;2022-12-07T09:39:48;98754.53;;;3.09;100.00
28181;BME280;15464;50.988;10.318;2022-12-07T09:42:28;98749.72;;;3.02;100.00
28181;BME280;15464;50.988;10.318;2022-12-07T09:44:56;98752.06;;;3.06;100.00
28181;BME280;15464;50.988;10.318;2022-12-07T09:47:24;98754.53;;;3.09;100.00
28181;BME280;15464;50.988;10.318;2022-12-07T09:49:53;98750.56;;;3.02;100.00
28181;BME280;15464;50.988;10.318;2022-12-07T09:52:28;98754.97;;;3.02;100.00
28181;BME280;15464;50.988;10.318;2022-12-07T09:55:03;98751.84;;;2.95;100.00
28181;BME280;15464;50.988;10.318;2022-12-07T09:57:31;98749.25;;;2.95;100.00
28181;BME280;15464;50.988;10.318;2022-12-07T10:00:06;98739.81;;;2.93;100.00
28181;BME280;15464;50.988;10.318;2022-12-07T10:02:46;98743.28;;;2.93;100.00
28181;BME280;15464;50.988;10.318;2022-12-07T10:05:15;98744.19;;;2.92;100.00
28181;BME280;15464;50.988;10.318;2022-12-07T10:07:49;98730.34;;;2.90;100.00
28181;BME280;15464;50.988;10.318;2022-12-07T10:10:21;98739.19;;;2.88;100.00
28181;BME280;15464;50.988;10.318;2022-12-07T10:13:00;98734.59;;;2.77;100.00
28181;BME280;15464;50.988;10.318;2022-12-07T10:21:14;98733.00;;;3.04;100.00
28181;BME280;15464;50.988;10.318;2022-12-07T10:24:02;98733.34;;;2.98;100.00
28181;BME280;15464;50.988;10.318;2022-12-07T10:29:16;98729.75;;;3.15;100.00
28181;BME280;15464;50.988;10.318;2022-12-07T10:31:45;98737.88;;;3.10;100.00
28181;BME280;15464;50.988;10.318;2022-12-07T10:36:53;98725.34;;;3.15;100.00
28181;BME280;15464;50.988;10.318;2022-12-07T10:39:47;98725.19;;;3.18;100.00
28181;BME280;15464;50.988;10.318;2022-12-07T10:42:36;98715.56;;;3.33;100.00
28181;BME280;15464;50.988;10.318;2022-12-07T10:45:07;98708.00;;;3.43;100.00
28181;BME280;15464;50.988;10.318;2022-12-07T10:53:28;98710.50;;;3.44;100.00
28181;BME280;15464;50.988;10.318;2022-12-07T10:59:15;98710.97;;;3.51;100.00
28181;BME280;15464;50.988;10.318;2022-12-07T11:02:18;98711.56;;;3.42;100.00
28181;BME280;15464;50.988;10.318;2022-12-07T11:05:26;98708.63;;;3.46;100.00
28181;BME280;15464;50.988;10.318;2022-12-07T11:08:00;98710.13;;;3.50;100.00
28181;BME280;15464;50.988;10.318;2022-12-07T11:10:31;98698.53;;;3.40;100.00
28181;BME280;15464;50.988;10.318;2022-12-07T11:21:50;98690.59;;;3.56;100.00
28181;BME280;15464;50.988;10.318;2022-12-07T11:24:27;98687.75;;;3.59;100.00
28181;BME280;15464;50.988;10.318;2022-12-07T11:37:51;98692.44;;;3.40;100.00
28181;BME280;15464;50.988;10.318;2022-12-07T11:40:33;98684.97;;;3.48;100.00
28181;BME280;15464;50.988;10.318;2022-12-07T11:43:15;98686.53;;;3.50;100.00
28181;BME280;15464;50.988;10.318;2022-12-07T11:45:48;98686.81;;;3.46;100.00
28181;BME280;15464;50.988;10.318;2022-12-07T11:48:47;98676.81;;;3.52;100.00
28181;BME280;15464;50.988;10.318;2022-12-07T11:51:18;98663.41;;;3.57;100.00
28181;BME280;15464;50.988;10.318;2022-12-07T11:54:14;98662.47;;;3.58;100.00
28181;BME280;15464;50.988;10.318;2022-12-07T11:56:43;98657.69;;;3.50;100.00
28181;BME280;15464;50.988;10.318;2022-12-07T11:59:17;98666.03;;;3.29;100.00
28181;BME280;15464;50.988;10.318;2022-12-07T12:07:25;98678.00;;;2.74;100.00
28181;BME280;15464;50.988;10.318;2022-12-07T12:12:57;98667.97;;;2.67;100.00
28181;BME280;15464;50.988;10.318;2022-12-07T12:21:29;98664.66;;;2.63;100.00
28181;BME280;15464;50.988;10.318;2022-12-07T12:24:10;98667.03;;;2.68;100.00
28181;BME280;15464;50.988;10.318;2022-12-07T12:26:49;98666.78;;;2.72;100.00
28181;BME280;15464;50.988;10.318;2022-12-07T12:29:43;98660.97;;;2.81;100.00
28181;BME280;15464;50.988;10.318;2022-12-07T12:32:16;98658.84;;;2.88;100.00
28181;BME280;15464;50.988;10.318;2022-12-07T12:42:55;98652.38;;;3.52;100.00
28181;BME280;15464;50.988;10.318;2022-12-07T12:45:26;98646.84;;;3.42;100.00
28181;BME280;15464;50.988;10.318;2022-12-07T12:47:56;98645.06;;;3.43;100.00
28181;BME280;15464;50.988;10.318;2022-12-07T12:50:28;98638.16;;;3.42;100.00
28181;BME280;15464;50.988;10.318;2022-12-07T12:53:26;98640.84;;;3.40;100.00
28181;BME280;15464;50.988;10.318;2022-12-07T12:58:32;98642.47;;;3.43;100.00
28181;BME280;15464;50.988;10.318;2022-12-07T13:01:38;98641.50;;;3.44;100.00
28181;BME280;15464;50.988;10.318;2022-12-07T13:04:28;98641.34;;;3.18;100.00
28181;BME280;15464;50.988;10.318;2022-12-07T13:06:57;98645.44;;;3.22;100.00
28181;BME280;15464;50.988;10.318;2022-12-07T13:09:29;98650.13;;;3.17;100.00
28181;BME280;15464;50.988;10.318;2022-12-07T13:12:05;98651.34;;;3.12;100.00
28181;BME280;15464;50.988;10.318;2022-12-07T13:20:03;98644.69;;;2.62;100.00
28181;BME280;15464;50.988;10.318;2022-12-07T13:25:37;98656.84;;;2.18;100.00
28181;BME280;15464;50.988;10.318;2022-12-07T13:28:15;98640.59;;;2.27;100.00
28181;BME280;15464;50.988;10.318;2022-12-07T13:33:37;98631.22;;;2.38;100.00
28181;BME280;15464;50.988;10.318;2022-12-07T13:36:03;98637.97;;;2.42;100.00
28181;BME280;15464;50.988;10.318;2022-12-07T13:38:35;98638.13;;;2.55;100.00
28181;BME280;15464;50.988;10.318;2022-12-07T13:41:14;98630.91;;;2.59;100.00
28181;BME280;15464;50.988;10.318;2022-12-07T13:46:15;98631.59;;;2.62;100.00
28181;BME280;15464;50.988;10.318;2022-12-07T13:48:49;98634.09;;;2.64;100.00
28181;BME280;15464;50.988;10.318;2022-12-07T13:51:24;98631.31;;;2.67;100.00
28181;BME280;15464;50.988;10.318;2022-12-07T13:53:55;98627.66;;;2.69;100.00
28181;BME280;15464;50.988;10.318;2022-12-07T13:56:26;98614.56;;;2.69;100.00
28181;BME280;15464;50.988;10.318;2022-12-07T13:58:54;98626.72;;;2.70;100.00
28181;BME280;15464;50.988;10.318;2022-12-07T14:01:21;98622.91;;;2.76;100.00
28181;BME280;15464;50.988;10.318;2022-12-07T14:03:48;98626.00;;;2.68;100.00
28181;BME280;15464;50.988;10.318;2022-12-07T14:06:22;98628.78;;;2.65;100.00
28181;BME280;15464;50.988;10.318;2022-12-07T14:09:16;98627.16;;;2.63;100.00
28181;BME280;15464;50.988;10.318;2022-12-07T14:11:45;98621.94;;;2.63;100.00
28181;BME280;15464;50.988;10.318;2022-12-07T14:14:17;98615.69;;;2.65;100.00
28181;BME280;15464;50.988;10.318;2022-12-07T14:16:56;98621.78;;;2.66;100.00
28181;BME280;15464;50.988;10.318;2022-12-07T14:22:18;98616.34;;;2.69;100.00
28181;BME280;15464;50.988;10.318;2022-12-07T14:24:46;98621.78;;;2.66;100.00
28181;BME280;15464;50.988;10.318;2022-12-07T14:27:20;98608.75;;;2.64;100.00
28181;BME280;15464;50.988;10.318;2022-12-07T14:29:48;98607.00;;;2.65;100.00
28181;BME280;15464;50.988;10.318;2022-12-07T14:32:21;98611.47;;;2.63;100.00
28181;BME280;15464;50.988;10.318;2022-12-07T14:34:58;98609.97;;;2.59;100.00
28181;BME280;15464;50.988;10.318;2022-12-07T14:37:26;98615.03;;;2.62;100.00
28181;BME280;15464;50.988;10.318;2022-12-07T14:39:53;98618.75;;;2.58;100.00
28181;BME280;15464;50.988;10.318;2022-12-07T14:42:23;98619.59;;;2.58;100.00
28181;BME280;15464;50.988;10.318;2022-12-07T14:44:50;98610.97;;;2.56;100.00
28181;BME280;15464;50.988;10.318;2022-12-07T14:47:17;98611.81;;;2.57;100.00
28181;BME280;15464;50.988;10.318;2022-12-07T14:50:04;98605.41;;;2.62;100.00
28181;BME280;15464;50.988;10.318;2022-12-07T14:52:32;98605.41;;;2.62;100.00
28181;BME280;15464;50.988;10.318;2022-12-07T14:55:30;98603.88;;;2.58;100.00
28181;BME280;15464;50.988;10.318;2022-12-07T14:57:57;98594.34;;;2.57;100.00